Time;durP1;ratioP1;P1;durP2;ratioP2;P2;SDS_P1;SDS_P2;PMS_P1;PMS_P2;Temp;Humidity;BMP_temperature;BMP_pressure;BME280_temperature;BME280_humidity;BME280_pressure;Samples;Min_cycle;Max_cycle;Signal;HPM_P1;HPM_P2
2021/01/28 00:00:40;;;;;;;37.25;18.13;;;;;;;-1.58;68.98;100097.09;5099287;28;20020;-64
2021/01/28 00:03:08;;;;;;;39.83;19.17;;;;;;;-1.55;68.84;100098.41;5099727;28;20392;-64
2021/01/28 00:05:35;;;;;;;49.30;21.67;;;;;;;-1.54;68.08;100091.75;5098703;28;20106;-64
2021/01/28 00:08:02;;;;;;;44.22;22.85;;;;;;;-1.54;68.75;100096.44;5099505;28;20315;-64
2021/01/28 00:10:29;;;;;;;43.92;21.15;;;;;;;-1.58;68.96;100091.59;5099095;28;20032;-64
2021/01/28 00:12:54;;;;;;;36.97;19.38;;;;;;;-1.62;68.91;100092.59;5099199;28;20098;-64
2021/01/28 00:15:23;;;;;;;35.30;16.33;;;;;;;-1.63;68.80;100093.72;5099238;28;20111;-63
2021/01/28 00:17:49;;;;;;;35.55;17.95;;;;;;;-1.63;68.65;100105.56;5098799;28;20028;-65
2021/01/28 00:20:17;;;;;;;30.98;17.27;;;;;;;-1.64;68.65;100098.44;5099097;28;20099;-64
2021/01/28 00:22:43;;;;;;;27.17;15.30;;;;;;;-1.66;68.62;100108.94;5098742;28;20016;-65
2021/01/28 00:25:11;;;;;;;38.60;18.83;;;;;;;-1.72;69.07;100102.00;5099034;28;20365;-65
2021/01/28 00:27:37;;;;;;;33.15;16.23;;;;;;;-1.81;69.00;100097.66;5098557;28;20103;-64
2021/01/28 00:30:05;;;;;;;35.83;17.40;;;;;;;-1.90;69.25;100095.72;5098067;28;20028;-63
2021/01/28 00:32:30;;;;;;;31.88;16.50;;;;;;;-1.99;69.21;100085.84;5097996;28;20024;-64
2021/01/28 00:34:55;;;;;;;28.85;16.52;;;;;;;-2.05;69.07;100089.91;5098231;28;20020;-64
2021/01/28 00:37:20;;;;;;;31.00;15.98;;;;;;;-2.11;69.57;100088.47;5098780;28;20016;-63
2021/01/28 00:39:46;;;;;;;32.35;17.55;;;;;;;-2.16;69.73;100094.94;5098368;28;20288;-64
2021/01/28 00:42:12;;;;;;;39.55;17.92;;;;;;;-2.20;69.62;100094.75;5098948;28;20391;-64
2021/01/28 00:44:38;;;;;;;38.33;19.23;;;;;;;-2.23;69.75;100092.66;5097814;28;20044;-64
2021/01/28 00:47:04;;;;;;;36.78;18.95;;;;;;;-2.19;69.92;100084.59;5097592;28;20306;-65
2021/01/28 00:49:29;;;;;;;39.10;19.50;;;;;;;-2.17;70.47;100085.06;5079242;28;20110;-64
2021/01/28 00:51:54;;;;;;;38.38;18.05;;;;;;;-2.16;69.98;100080.38;5096748;28;20077;-65
2021/01/28 00:54:19;;;;;;;35.88;18.40;;;;;;;-2.22;69.89;100074.19;5097337;28;20016;-64
2021/01/28 00:56:45;;;;;;;37.65;18.00;;;;;;;-2.19;69.79;100079.06;5097497;28;20046;-65
2021/01/28 00:59:10;;;;;;;36.63;17.58;;;;;;;-2.17;69.99;100084.25;5096573;28;20024;-66
2021/01/28 01:01:35;;;;;;;34.70;16.60;;;;;;;-2.17;70.14;100081.50;5097066;28;20027;-65
2021/01/28 01:04:01;;;;;;;31.42;16.38;;;;;;;-2.19;69.86;100082.63;5096817;28;20031;-65
2021/01/28 01:06:26;;;;;;;31.85;15.48;;;;;;;-2.16;70.29;100083.13;5094093;28;20020;-63
2021/01/28 01:08:51;;;;;;;30.27;15.57;;;;;;;-2.12;69.64;100078.56;5107503;28;20019;-64
2021/01/28 01:11:17;;;;;;;29.98;15.13;;;;;;;-2.06;69.55;100078.06;5099085;28;20024;-64
2021/01/28 01:13:42;;;;;;;29.85;15.20;;;;;;;-2.02;69.21;100076.28;5117265;28;20050;-65
2021/01/28 01:16:12;;;;;;;28.15;14.00;;;;;;;-2.00;69.25;100075.94;5117081;28;20020;-64
2021/01/28 01:18:39;;;;;;;34.30;16.02;;;;;;;-2.02;69.71;100076.28;5117130;28;20019;-64
2021/01/28 01:21:06;;;;;;;39.67;17.90;;;;;;;-2.02;69.97;100072.72;5117030;28;20018;-64
2021/01/28 01:23:32;;;;;;;39.60;18.90;;;;;;;-2.02;69.31;100070.78;5116924;28;20051;-64
2021/01/28 01:25:59;;;;;;;40.83;18.58;;;;;;;-2.02;69.39;100069.97;5114988;28;20084;-65
2021/01/28 01:28:28;;;;;;;36.55;18.13;;;;;;;-2.04;69.88;100075.81;5117193;28;20020;-65
2021/01/28 01:30:54;;;;;;;32.65;16.30;;;;;;;-2.04;69.73;100075.00;5116536;28;20105;-65
2021/01/28 01:33:19;;;;;;;25.75;15.43;;;;;;;-2.06;69.46;100069.81;5117208;28;20060;-64
2021/01/28 01:35:44;;;;;;;30.77;15.15;;;;;;;-2.10;69.57;100068.84;5098767;28;20024;-65
2021/01/28 01:38:10;;;;;;;28.23;13.75;;;;;;;-2.15;69.66;100059.97;5116920;28;20092;-64
2021/01/28 01:40:42;;;;;;;25.92;13.88;;;;;;;-2.21;69.65;100068.34;5116870;28;20042;-64
2021/01/28 01:43:10;;;;;;;33.38;14.75;;;;;;;-2.22;69.51;100057.66;5116781;28;20020;-64
2021/01/28 01:45:41;;;;;;;30.02;15.80;;;;;;;-2.30;69.72;100059.31;5096182;28;595813;-65
2021/01/28 01:48:10;;;;;;;27.52;14.98;;;;;;;-2.35;69.79;100061.41;5117569;28;20123;-65
2021/01/28 01:51:00;;;;;;;34.30;16.45;;;;;;;-2.43;69.68;100062.25;5117444;28;20423;-64
2021/01/28 01:53:29;;;;;;;31.13;17.17;;;;;;;-2.55;70.10;100063.69;5117619;28;20023;-64
2021/01/28 01:56:01;;;;;;;30.33;17.45;;;;;;;-2.70;70.10;100050.41;5117673;28;20110;-62
2021/01/28 01:58:53;;;;;;;31.30;16.83;;;;;;;-2.84;70.61;100049.72;5117532;28;20016;-64
2021/01/28 02:01:22;;;;;;;39.60;18.35;;;;;;;-2.91;71.23;100041.97;5117337;28;20047;-64
2021/01/28 02:03:52;;;;;;;31.25;16.70;;;;;;;-2.89;71.45;100036.16;5117747;28;20307;-64
2021/01/28 02:06:20;;;;;;;31.05;16.23;;;;;;;-2.85;71.03;100042.63;5117412;28;20015;-64
2021/01/28 02:08:51;;;;;;;32.05;17.02;;;;;;;-2.82;71.18;100042.78;5116977;28;20028;-64
2021/01/28 02:11:17;;;;;;;28.17;15.83;;;;;;;-2.82;71.46;100040.03;5116607;28;20502;-64
2021/01/28 02:13:44;;;;;;;32.65;16.90;;;;;;;-2.81;71.48;100038.09;5117056;28;20088;-64
2021/01/28 02:16:11;;;;;;;33.20;17.40;;;;;;;-2.77;71.26;100043.75;5116602;28;20027;-64
2021/01/28 02:18:37;;;;;;;32.10;16.08;;;;;;;-2.76;71.20;100045.38;5116961;28;20475;-64
2021/01/28 02:21:16;;;;;;;30.70;16.20;;;;;;;-2.77;70.67;100044.56;5116970;28;20016;-65
2021/01/28 02:24:02;;;;;;;27.92;14.52;;;;;;;-2.75;71.10;100052.50;5116859;28;20059;-66
2021/01/28 02:26:31;;;;;;;30.38;15.35;;;;;;;-2.76;70.67;100045.38;5116919;28;20027;-65
2021/01/28 02:28:56;;;;;;;39.63;16.13;;;;;;;-2.76;70.67;100053.63;5116701;28;20418;-65
2021/01/28 02:31:23;;;;;;;29.45;15.02;;;;;;;-2.76;71.02;100053.63;5116989;28;20027;-66
2021/01/28 02:33:57;;;;;;;28.80;15.27;;;;;;;-2.76;70.97;100059.13;5116594;28;20028;-65
2021/01/28 02:36:34;;;;;;;28.70;15.13;;;;;;;-2.72;70.61;100057.38;5116822;28;20016;-64
2021/01/28 02:38:59;;;;;;;27.45;15.52;;;;;;;-2.70;70.78;100050.41;5116830;28;20024;-65
2021/01/28 02:41:25;;;;;;;29.17;14.15;;;;;;;-2.68;70.76;100058.34;5098662;28;20022;-65
2021/01/28 02:43:51;;;;;;;29.90;15.30;;;;;;;-2.70;70.96;100055.09;5116355;28;20035;-65
2021/01/28 02:46:18;;;;;;;30.30;15.98;;;;;;;-2.70;70.83;100055.09;5116647;28;20430;-64
2021/01/28 02:48:44;;;;;;;34.92;16.13;;;;;;;-2.72;70.53;100047.19;5116730;28;20108;-64
2021/01/28 02:51:10;;;;;;;41.05;15.63;;;;;;;-2.75;70.51;100052.50;5116386;28;20076;-65
2021/01/28 02:53:42;;;;;;;33.53;16.15;;;;;;;-2.77;70.37;100058.31;5116499;28;20023;-64
2021/01/28 02:56:08;;;;;;;34.83;17.55;;;;;;;-2.77;70.13;100063.00;5116390;28;20122;-64
2021/01/28 02:58:33;;;;;;;34.42;15.70;;;;;;;-2.86;69.62;100060.25;5116260;28;20035;-63
2021/01/28 03:00:59;;;;;;;29.38;15.68;;;;;;;-2.88;69.69;100060.56;5116434;28;20028;-64
2021/01/28 03:03:25;;;;;;;32.08;15.23;;;;;;;-2.88;70.16;100068.00;5110055;28;20016;-65
2021/01/28 03:05:51;;;;;;;30.40;15.90;;;;;;;-2.87;70.06;100067.69;5090356;28;20047;-64
2021/01/28 03:08:17;;;;;;;41.17;18.10;;;;;;;-2.87;70.50;100067.69;5116147;28;20078;-64
2021/01/28 03:10:43;;;;;;;60.03;21.77;;;;;;;-2.89;70.71;100058.94;5116047;28;20034;-64
2021/01/28 03:13:10;;;;;;;42.97;21.02;;;;;;;-2.86;70.43;100063.81;5116000;28;20027;-64
2021/01/28 03:15:35;;;;;;;33.72;15.82;;;;;;;-2.84;70.58;100055.25;5116064;28;20023;-64
2021/01/28 03:18:00;;;;;;;27.80;13.57;;;;;;;-2.88;70.48;100060.56;5116405;28;20072;-63
2021/01/28 03:20:26;;;;;;;28.80;14.15;;;;;;;-2.88;70.61;100049.56;5115917;28;20062;-64
2021/01/28 03:22:51;;;;;;;29.70;14.07;;;;;;;-2.87;71.04;100042.13;5115970;28;20310;-64
2021/01/28 03:25:19;;;;;;;27.75;13.50;;;;;;;-2.88;70.19;100046.81;5116000;28;20019;-64
2021/01/28 03:27:45;;;;;;;27.50;12.68;;;;;;;-2.93;70.46;100052.47;5115707;28;20414;-64
2021/01/28 03:30:14;;;;;;;24.27;12.77;;;;;;;-2.96;70.72;100047.63;5116146;28;20318;-64
2021/01/28 03:32:39;;;;;;;25.55;13.13;;;;;;;-2.97;70.58;100059.75;5115724;28;20028;-64
2021/01/28 03:35:07;;;;;;;26.27;13.52;;;;;;;-3.01;70.68;100058.78;5115814;28;20046;-63
2021/01/28 03:37:33;;;;;;;23.27;12.82;;;;;;;-3.01;71.34;100050.53;5113667;28;20020;-63
2021/01/28 03:39:58;;;;;;;24.88;12.93;;;;;;;-3.01;70.98;100049.69;5104135;28;20107;-63
2021/01/28 03:42:24;;;;;;;31.13;15.25;;;;;;;-3.00;70.89;100048.59;5107342;28;20019;-64
2021/01/28 03:44:50;;;;;;;26.15;13.55;;;;;;;-3.00;70.70;100045.84;5108289;28;20049;-64
2021/01/28 03:47:15;;;;;;;31.38;14.82;;;;;;;-3.02;71.05;100043.38;5091070;28;20023;-64
2021/01/28 03:49:40;;;;;;;26.60;13.63;;;;;;;-3.02;71.07;100037.88;5115366;28;20026;-64
2021/01/28 03:52:06;;;;;;;23.75;13.43;;;;;;;-2.99;71.00;100044.72;5115872;28;20028;-64
2021/01/28 03:54:31;;;;;;;25.17;14.02;;;;;;;-3.00;71.23;100040.34;5115683;28;20028;-64
2021/01/28 03:56:56;;;;;;;25.13;14.68;;;;;;;-3.03;71.12;100041.75;5115229;28;20414;-64
2021/01/28 03:59:22;;;;;;;28.20;15.43;;;;;;;-3.04;71.37;100044.84;5115406;28;20023;-64
2021/01/28 04:01:48;;;;;;;27.80;14.48;;;;;;;-3.06;71.51;100033.34;5115800;28;20102;-64
2021/01/28 04:04:13;;;;;;;31.27;15.48;;;;;;;-3.09;71.57;100032.06;5115691;28;20024;-63
2021/01/28 04:06:38;;;;;;;26.45;15.10;;;;;;;-3.12;71.73;100032.69;5115320;28;20023;-65
2021/01/28 04:09:05;;;;;;;26.02;14.00;;;;;;;-3.16;71.92;100027.03;5115722;28;20080;-64
2021/01/28 04:11:30;;;;;;;24.48;14.18;;;;;;;-3.18;72.18;100029.28;5115383;28;20114;-64
2021/01/28 04:13:55;;;;;;;23.73;13.68;;;;;;;-3.20;71.98;100031.56;5111038;28;20051;-64
2021/01/28 04:16:20;;;;;;;27.15;14.00;;;;;;;-3.19;72.40;100032.38;5068164;28;20036;-63
2021/01/28 04:18:46;;;;;;;29.95;14.68;;;;;;;-3.15;72.83;100038.84;5112032;28;20031;-64
2021/01/28 04:21:11;;;;;;;51.85;21.15;;;;;;;-3.13;72.52;100042.88;5111815;28;20036;-64
2021/01/28 04:23:36;;;;;;;39.67;18.17;;;;;;;-3.14;72.26;100046.75;5109730;28;20023;-64
2021/01/28 04:26:02;;;;;;;32.00;15.60;;;;;;;-3.13;72.57;100047.56;5113661;28;20023;-64
2021/01/28 04:28:28;;;;;;;32.53;15.00;;;;;;;-3.13;72.53;100036.56;5115627;28;20035;-64
2021/01/28 04:30:53;;;;;;;28.83;15.30;;;;;;;-3.13;72.78;100034.63;5097013;28;20075;-64
2021/01/28 04:33:19;;;;;;;27.27;13.68;;;;;;;-3.13;73.23;100031.09;5097516;28;20028;-64
2021/01/28 04:35:44;;;;;;;29.70;17.55;;;;;;;-3.12;72.50;100033.50;5103158;28;20035;-64
2021/01/28 04:38:09;;;;;;;33.13;16.10;;;;;;;-3.11;72.86;100039.81;5114576;28;20483;-65
2021/01/28 04:40:41;;;;;;;35.65;18.52;;;;;;;-3.15;72.55;100039.66;5113410;28;20027;-64
2021/01/28 04:43:32;;;;;;;36.25;19.73;;;;;;;-3.19;72.91;100035.94;5106224;28;20108;-64
2021/01/28 04:46:01;;;;;;;38.63;21.67;;;;;;;-3.26;72.42;100027.34;5095595;28;20135;-64
2021/01/28 04:48:28;;;;;;;34.55;18.08;;;;;;;-3.29;72.47;100027.97;5106813;28;20026;-65
2021/01/28 04:50:55;;;;;;;29.60;17.15;;;;;;;-3.33;72.73;100023.44;5109518;28;20103;-65
2021/01/28 04:53:34;;;;;;;34.38;17.38;;;;;;;-3.38;72.40;100018.06;5110890;28;20138;-64
2021/01/28 04:56:07;;;;;;;28.85;16.08;;;;;;;-3.47;72.38;100021.63;5103018;28;20047;-64
2021/01/28 04:58:32;;;;;;;33.28;21.92;;;;;;;-3.56;72.37;100019.94;5104256;28;20011;-65
2021/01/28 05:00:58;;;;;;;34.75;19.45;;;;;;;-3.65;72.68;100011.69;5102103;28;20310;-63
2021/01/28 05:03:29;;;;;;;31.77;18.40;;;;;;;-3.70;73.38;100020.06;5105714;28;20023;-64
2021/01/28 05:05:56;;;;;;;37.80;18.35;;;;;;;-3.74;73.86;100027.31;5101980;28;20110;-65
2021/01/28 05:08:22;;;;;;;48.45;23.48;;;;;;;-3.80;73.54;100034.09;5106539;28;20032;-66
2021/01/28 05:10:49;;;;;;;67.47;28.30;;;;;;;-3.85;73.91;100023.22;5114657;28;20042;-64
2021/01/28 05:13:36;;;;;;;71.47;28.00;;;;;;;-3.90;73.68;100032.41;5112191;28;20108;-65
2021/01/28 05:16:26;;;;;;;63.90;26.55;;;;;;;-3.90;73.98;100026.91;5114922;28;20039;-64
2021/01/28 05:19:24;;;;;;;56.35;26.30;;;;;;;-3.79;74.05;100035.72;5118035;28;20031;-65
2021/01/28 05:22:11;;;;;;;62.90;28.95;;;;;;;-3.78;73.85;100026.34;5111411;28;20038;-65
2021/01/28 05:24:42;;;;;;;64.07;29.95;;;;;;;-3.83;73.76;100031.97;5117930;28;20015;-64
2021/01/28 05:27:14;;;;;;;;;;;;;;;-3.89;73.94;100033.22;5102671;28;20032;-65
2021/01/28 05:29:41;;;;;;;70.05;30.55;;;;;;;-3.94;73.45;100034.16;5096292;28;20226;-64
2021/01/28 05:32:14;;;;;;;79.60;30.80;;;;;;;-3.99;73.16;100037.06;5103856;28;20311;-66
2021/01/28 05:34:39;;;;;;;67.10;28.17;;;;;;;-4.06;73.86;100032.00;5100556;28;20047;-64
2021/01/28 05:37:09;;;;;;;63.65;26.88;;;;;;;-4.13;73.85;100039.84;5099416;28;20093;-65
2021/01/28 05:39:37;;;;;;;69.03;29.52;;;;;;;-4.19;73.79;100035.63;5063608;28;20048;-65
2021/01/28 05:42:08;;;;;;;61.55;26.98;;;;;;;-4.22;73.88;100028.03;5097555;28;20032;-65
2021/01/28 05:44:38;;;;;;;77.53;28.97;;;;;;;-4.29;73.99;100029.59;5094208;28;20060;-64
2021/01/28 05:47:11;;;;;;;88.15;33.72;;;;;;;-4.36;73.59;100017.13;5094781;28;20028;-64
2021/01/28 05:49:40;;;;;;;84.93;32.63;;;;;;;-4.37;74.34;100025.69;5100343;28;20027;-63
2021/01/28 05:52:19;;;;;;;87.72;35.13;;;;;;;-4.38;74.04;100022.13;5100504;28;20024;-65
2021/01/28 05:55:02;;;;;;;94.85;32.78;;;;;;;-4.42;73.86;100031.25;5093741;28;20054;-64
2021/01/28 05:57:53;;;;;;;93.20;33.38;;;;;;;-4.45;74.21;100031.91;5094861;28;20024;-66
2021/01/28 06:00:33;;;;;;;96.65;33.67;;;;;;;-4.46;74.28;100022.84;5098450;28;20020;-64
2021/01/28 06:03:22;;;;;;;96.68;36.08;;;;;;;-4.41;74.01;100019.16;5105780;28;20019;-65
2021/01/28 06:06:06;;;;;;;150.88;50.08;;;;;;;-4.31;74.33;100020.88;5102905;28;20089;-64
2021/01/28 06:08:57;;;;;;;339.77;95.63;;;;;;;-4.18;74.24;100023.53;5096944;28;20019;-64
2021/01/28 06:11:50;;;;;;;291.75;99.25;;;;;;;-4.10;74.42;100022.78;5104946;28;20035;-64
2021/01/28 06:14:18;;;;;;;191.98;70.55;;;;;;;-4.06;74.37;100023.78;5103651;28;20012;-64
2021/01/28 06:17:05;;;;;;;139.23;53.60;;;;;;;-4.00;74.15;100032.69;5114972;28;20027;-62
2021/01/28 06:20:07;;;;;;;106.68;49.35;;;;;;;-3.96;74.11;100032.88;5094334;28;20454;-64
2021/01/28 06:22:48;;;;;;;128.77;57.75;;;;;;;-3.90;74.11;100040.66;5116841;28;20410;-66
2021/01/28 06:25:19;;;;;;;157.52;64.55;;;;;;;-3.85;73.44;100047.94;5117355;28;20410;-64
2021/01/28 06:28:03;;;;;;;138.80;62.47;;;;;;;-3.83;73.60;100049.25;5089675;28;20024;-65
2021/01/28 06:30:36;;;;;;;259.17;93.30;;;;;;;-3.81;74.00;100041.53;5116912;28;20051;-64
2021/01/28 06:33:22;;;;;;;362.67;129.57;;;;;;;-3.83;73.91;100038.28;5116814;28;20403;-64
2021/01/28 06:36:15;;;;;;;303.27;114.63;;;;;;;-3.83;74.42;100056.69;5116520;28;20110;-65
2021/01/28 06:39:05;;;;;;;253.10;97.97;;;;;;;-3.78;74.92;100056.56;5116781;28;20079;-66
2021/01/28 06:41:35;;;;;;;226.63;87.53;;;;;;;-3.74;74.49;100047.38;5116844;28;20407;-65
2021/01/28 06:44:08;;;;;;;210.52;83.53;;;;;;;-3.70;74.63;100038.47;5116014;28;20068;-64
2021/01/28 06:46:58;;;;;;;189.15;80.40;;;;;;;-3.66;74.61;100040.28;5085863;28;20020;-65
2021/01/28 06:49:45;;;;;;;201.95;84.75;;;;;;;-3.54;75.22;100037.75;5116643;28;20059;-65
2021/01/28 06:52:44;;;;;;;159.55;67.43;;;;;;;-3.50;74.54;100033.25;5116386;28;20050;-64
2021/01/28 06:55:34;;;;;;;189.93;73.97;;;;;;;-3.37;75.41;100034.25;5090523;28;20409;-64
2021/01/28 06:58:14;;;;;;;195.70;73.13;;;;;;;-3.19;76.02;100032.38;5115848;28;20030;-65
2021/01/28 07:00:49;;;;;;;162.77;62.33;;;;;;;-2.94;76.22;100028.88;5116442;28;20315;-64
2021/01/28 07:03:54;;;;;;;148.48;66.20;;;;;;;-2.61;76.38;100031.16;5116168;28;20030;-64
2021/01/28 07:06:31;;;;;;;145.02;61.58;;;;;;;-2.35;76.01;100026.44;5065240;28;20128;-64
2021/01/28 07:09:24;;;;;;;160.10;68.30;;;;;;;-2.27;74.33;100036.63;5116309;28;20114;-65
2021/01/28 07:11:56;;;;;;;124.53;57.30;;;;;;;-2.32;73.15;100020.28;5115913;28;20084;-64
2021/01/28 07:14:22;;;;;;;140.98;62.20;;;;;;;-2.33;72.79;100015.91;5116323;28;20027;-64
2021/01/28 07:16:56;;;;;;;252.60;113.13;;;;;;;-2.35;73.24;100023.69;5116162;28;20073;-64
2021/01/28 07:19:25;;;;;;;97.55;42.95;;;;;;;-2.40;73.21;100037.63;5115909;28;20024;-65
2021/01/28 07:21:52;;;;;;;91.13;41.15;;;;;;;-2.41;73.86;100018.69;5116201;28;20024;-64
2021/01/28 07:24:26;;;;;;;83.88;41.30;;;;;;;-2.38;74.31;100024.34;5116209;28;20011;-65
2021/01/28 07:27:00;;;;;;;76.18;36.83;;;;;;;-2.37;74.14;100025.97;5098090;28;20419;-66
2021/01/28 07:29:41;;;;;;;66.43;35.58;;;;;;;-2.36;74.41;100022.06;5088642;28;20024;-65
2021/01/28 07:32:09;;;;;;;71.15;36.25;;;;;;;-2.36;74.86;100019.31;5115845;28;20031;-64
2021/01/28 07:34:36;;;;;;;72.78;36.53;;;;;;;-2.34;75.22;100019.81;5115709;28;20064;-65
2021/01/28 07:37:25;;;;;;;80.10;39.28;;;;;;;-2.33;75.73;100026.94;5116076;28;20020;-62
2021/01/28 07:39:50;;;;;;;92.43;42.90;;;;;;;-2.30;75.93;100028.22;5092097;28;20024;-62
2021/01/28 07:42:21;;;;;;;90.35;38.38;;;;;;;-2.28;76.00;100029.50;5116043;28;20024;-62
2021/01/28 07:44:58;;;;;;;91.90;45.22;;;;;;;-2.23;76.20;100018.31;5108878;28;20135;-62
2021/01/28 07:47:29;;;;;;;96.93;48.70;;;;;;;-2.12;76.70;100018.81;5110073;28;20028;-62
2021/01/28 07:50:34;;;;;;;97.25;45.67;;;;;;;-2.02;77.06;100025.91;5115573;28;20024;-62
2021/01/28 07:53:36;;;;;;;102.57;48.58;;;;;;;-1.92;76.58;100031.03;5097333;28;20031;-62
2021/01/28 07:56:02;;;;;;;145.05;54.83;;;;;;;-1.85;76.74;100036.88;5092232;28;20119;-62
2021/01/28 07:58:34;;;;;;;134.00;52.20;;;;;;;-1.78;76.17;100034.44;5097755;28;20061;-62
2021/01/28 08:01:13;;;;;;;91.93;39.92;;;;;;;-1.71;76.11;100034.72;5115571;28;20035;-62
2021/01/28 08:03:58;;;;;;;57.60;28.25;;;;;;;-1.63;76.76;100044.94;5115408;28;20410;-62
2021/01/28 08:06:24;;;;;;;49.97;28.33;;;;;;;-1.54;76.84;100038.56;5115880;28;20531;-64
2021/01/28 08:09:08;;;;;;;58.90;33.05;;;;;;;-1.46;76.85;100033.00;5115577;28;20027;-62
2021/01/28 08:11:34;;;;;;;43.50;22.40;;;;;;;-1.42;76.72;100025.69;5119387;28;20176;-63
2021/01/28 08:14:00;;;;;;;39.88;21.45;;;;;;;-1.38;77.21;100040.41;5119543;28;20024;-62
2021/01/28 08:16:26;;;;;;;40.83;23.67;;;;;;;-1.34;77.20;100024.06;5119840;28;20072;-63
2021/01/28 08:19:05;;;;;;;57.50;29.25;;;;;;;-1.32;77.06;100025.34;5119244;28;20306;-63
2021/01/28 08:21:32;;;;;;;44.83;22.20;;;;;;;-1.27;77.04;100021.56;5119756;28;20124;-64
2021/01/28 08:24:12;;;;;;;64.40;26.25;;;;;;;-1.23;77.21;100018.94;5119385;28;20728;-63
2021/01/28 08:26:40;;;;;;;56.40;28.00;;;;;;;-1.21;77.16;100028.50;5119346;28;20051;-63
2021/01/28 08:29:14;;;;;;;56.63;27.02;;;;;;;-1.18;77.08;100027.84;5119399;28;20016;-64
2021/01/28 08:31:46;;;;;;;51.08;25.88;;;;;;;-1.13;77.16;100018.56;5118957;28;20072;-64
2021/01/28 08:34:25;;;;;;;32.90;18.92;;;;;;;-1.07;77.12;100026.34;5119351;28;20031;-64
2021/01/28 08:36:53;;;;;;;45.83;21.52;;;;;;;-1.00;76.71;100023.84;5119265;28;20035;-64
2021/01/28 08:39:23;;;;;;;48.08;22.50;;;;;;;-0.96;76.37;100019.28;5119352;28;20016;-64
2021/01/28 08:42:19;;;;;;;32.92;19.70;;;;;;;-0.90;76.44;100022.63;5119110;28;20031;-64
2021/01/28 08:44:47;;;;;;;49.97;23.38;;;;;;;-0.81;76.77;100028.13;5099320;28;20094;-64
2021/01/28 08:47:26;;;;;;;50.28;25.17;;;;;;;-0.77;76.62;100026.31;5111500;28;20024;-64
2021/01/28 08:50:03;;;;;;;34.35;19.30;;;;;;;-0.77;76.26;100020.78;5091319;28;20426;-64
2021/01/28 08:52:29;;;;;;;54.28;27.08;;;;;;;-0.74;76.63;100022.88;5118816;28;20318;-64
2021/01/28 08:54:54;;;;;;;46.25;22.95;;;;;;;-0.70;76.86;100026.56;5118733;28;20094;-62
2021/01/28 08:57:23;;;;;;;38.10;20.63;;;;;;;-0.67;76.87;100023.13;5119277;28;20110;-62
2021/01/28 08:59:52;;;;;;;35.70;20.52;;;;;;;-0.64;76.71;100030.72;5118622;28;20019;-63
2021/01/28 09:02:23;;;;;;;47.20;24.15;;;;;;;-0.61;76.74;100027.28;5118494;28;20016;-62
2021/01/28 09:05:02;;;;;;;44.00;24.73;;;;;;;-0.58;76.45;100032.13;5118404;28;20089;-62
2021/01/28 09:07:51;;;;;;;44.30;22.33;;;;;;;-0.51;76.89;100037.94;5118596;28;20024;-62
2021/01/28 09:10:42;;;;;;;54.55;27.50;;;;;;;-0.41;76.00;100034.78;5118971;28;20364;-64
2021/01/28 09:13:14;;;;;;;;;;;;;;;-0.39;75.52;100038.00;5115707;28;20488;-65
2021/01/28 09:15:41;;;;;;;105.47;43.00;;;;;;;-0.40;75.57;100041.91;5118385;28;20195;-64
2021/01/28 09:18:08;;;;;;;77.07;36.78;;;;;;;-0.37;75.74;100054.22;5118258;28;20027;-64
2021/01/28 09:20:37;;;;;;;76.20;33.42;;;;;;;-0.34;75.60;100057.13;5117957;28;20315;-64
2021/01/28 09:23:14;;;;;;;60.55;27.75;;;;;;;-0.27;76.00;100053.00;5118363;28;20323;-64
2021/01/28 09:25:41;;;;;;;49.70;25.15;;;;;;;-0.23;75.59;100062.25;5117992;28;20027;-64
2021/01/28 09:28:22;;;;;;;58.45;27.27;;;;;;;-0.19;75.78;100057.66;5118435;28;20115;-64
2021/01/28 09:30:51;;;;;;;50.83;25.55;;;;;;;-0.15;75.70;100055.81;5117575;28;20023;-64
2021/01/28 09:33:38;;;;;;;44.33;23.08;;;;;;;-0.11;76.24;100034.66;5100146;28;20111;-64
2021/01/28 09:36:15;;;;;;;41.50;22.55;;;;;;;-0.03;76.74;100039.28;5117819;28;20023;-63
2021/01/28 09:39:00;;;;;;;43.20;23.58;;;;;;;0.03;76.48;100037.94;5118134;28;20027;-64
2021/01/28 09:41:33;;;;;;;36.70;20.23;;;;;;;0.12;76.50;100040.63;5118292;28;20022;-64
2021/01/28 09:43:58;;;;;;;45.80;24.02;;;;;;;0.19;76.54;100030.59;5117315;28;20027;-64
2021/01/28 09:46:29;;;;;;;54.00;27.02;;;;;;;0.22;76.11;100040.97;5104052;28;20025;-64
2021/01/28 09:48:58;;;;;;;50.30;27.25;;;;;;;0.26;75.87;100032.81;5118072;28;20376;-64
2021/01/28 09:51:27;;;;;;;50.08;25.92;;;;;;;0.31;75.98;100032.59;5117656;28;20303;-64
2021/01/28 09:54:11;;;;;;;57.65;29.65;;;;;;;0.35;76.06;100027.19;5117549;28;20034;-61
2021/01/28 09:56:37;;;;;;;47.17;26.25;;;;;;;0.40;75.94;100018.66;5089503;28;20375;-62
2021/01/28 09:59:02;;;;;;;46.42;23.23;;;;;;;0.45;75.55;100016.47;5117329;28;20384;-62
2021/01/28 10:01:28;;;;;;;46.40;24.17;;;;;;;0.52;75.44;100016.72;5117525;28;20023;-62
2021/01/28 10:03:53;;;;;;;38.05;21.13;;;;;;;0.63;75.01;100007.97;5117460;28;20314;-62
2021/01/28 10:06:18;;;;;;;35.97;21.60;;;;;;;0.68;74.72;100005.78;5117420;28;20081;-65
2021/01/28 10:08:44;;;;;;;38.60;20.27;;;;;;;0.69;74.43;99992.75;5099141;28;20072;-65
2021/01/28 10:11:09;;;;;;;34.63;19.80;;;;;;;0.74;74.64;99998.88;5117455;28;20113;-64
2021/01/28 10:13:34;;;;;;;38.15;20.15;;;;;;;0.78;74.90;99998.97;5099105;28;20410;-64
2021/01/28 10:16:00;;;;;;;39.08;20.30;;;;;;;0.81;74.67;99993.53;5117065;28;20110;-64
2021/01/28 10:18:25;;;;;;;33.55;19.88;;;;;;;0.86;74.67;99984.22;5117149;28;20072;-64
2021/01/28 10:20:51;;;;;;;33.55;19.88;;;;;;;0.90;74.85;99974.06;5117013;28;20110;-64
2021/01/28 10:23:16;;;;;;;37.25;20.65;;;;;;;0.95;75.49;99973.84;5117194;28;20296;-64
2021/01/28 10:25:41;;;;;;;27.27;16.50;;;;;;;0.99;75.20;99965.63;5116907;28;20027;-64
2021/01/28 10:28:07;;;;;;;34.28;18.73;;;;;;;1.06;75.00;99960.31;5117027;28;20030;-64
2021/01/28 10:30:32;;;;;;;33.97;17.88;;;;;;;1.13;75.03;99968.84;5116998;28;20080;-64
2021/01/28 10:32:59;;;;;;;33.85;17.73;;;;;;;1.19;74.83;99968.25;5115904;28;20059;-64
2021/01/28 10:35:27;;;;;;;26.17;15.82;;;;;;;1.28;74.42;99961.75;5117144;28;20019;-65
2021/01/28 10:37:53;;;;;;;39.63;19.05;;;;;;;1.35;74.57;99954.47;5088431;28;20468;-63
2021/01/28 10:40:19;;;;;;;32.13;17.60;;;;;;;1.37;74.44;99952.16;5116754;28;20027;-64
2021/01/28 10:42:45;;;;;;;33.13;17.15;;;;;;;1.41;73.98;99953.06;5116366;28;20024;-64
2021/01/28 10:45:19;;;;;;;30.15;17.95;;;;;;;1.48;74.05;99950.50;5106459;28;20047;-64
2021/01/28 10:47:44;;;;;;;32.70;18.95;;;;;;;1.50;74.03;99942.63;5113210;28;20027;-63
2021/01/28 10:50:10;;;;;;;29.17;17.40;;;;;;;1.54;74.12;99935.25;5116793;28;20034;-64
2021/01/28 10:52:36;;;;;;;25.35;15.07;;;;;;;1.59;73.79;99930.59;5116525;28;20057;-64
2021/01/28 10:55:02;;;;;;;27.88;16.30;;;;;;;1.68;73.60;99920.19;5116443;28;20039;-64
2021/01/28 10:57:28;;;;;;;50.55;23.85;;;;;;;1.78;73.51;99922.44;5116681;28;20027;-64
2021/01/28 10:59:53;;;;;;;56.80;27.38;;;;;;;1.83;73.50;99917.41;5098296;28;20019;-64
2021/01/28 11:02:18;;;;;;;38.17;21.00;;;;;;;1.93;72.66;99913.34;5116225;28;20365;-64
2021/01/28 11:04:44;;;;;;;49.78;28.50;;;;;;;2.00;72.47;99904.41;5116228;28;20049;-64
2021/01/28 11:07:09;;;;;;;52.75;27.42;;;;;;;2.02;72.28;99911.19;5116523;28;20031;-64
2021/01/28 11:09:34;;;;;;;33.63;18.63;;;;;;;2.07;72.24;99907.34;5116016;28;20189;-62
2021/01/28 11:12:00;;;;;;;35.20;18.10;;;;;;;2.07;71.66;99894.28;5116031;28;20024;-61
2021/01/28 11:14:25;;;;;;;40.65;20.13;;;;;;;2.09;71.78;99882.84;5116392;28;20028;-61
2021/01/28 11:16:51;;;;;;;61.08;28.92;;;;;;;2.11;71.95;99874.97;5115792;28;20457;-63
2021/01/28 11:19:16;;;;;;;38.05;22.85;;;;;;;2.17;71.82;99873.53;5116171;28;20023;-64
2021/01/28 11:21:42;;;;;;;30.70;17.85;;;;;;;2.22;71.34;99873.28;5116197;28;20407;-64
2021/01/28 11:24:08;;;;;;;39.30;18.25;;;;;;;2.29;71.04;99870.66;5116112;28;20015;-64
2021/01/28 11:26:34;;;;;;;24.75;15.27;;;;;;;2.39;69.99;99849.88;5115815;28;20432;-66
2021/01/28 11:28:59;;;;;;;24.80;13.23;;;;;;;2.41;70.59;99850.31;5115906;28;20128;-65